Aviation Digital Data Service (ADDS)

Output produced by TAFs form (0155 UTC 22 June 2018)
found at http://www.aviationweather.gov/adds/tafs/
 
METAR text: RJTI 220100Z 15006KT 9999 SCT030 BKN/// 24/21 Q1007
Conditions at: RJTI (TOKYO HELIPORT , JP) observed 0100 UTC 22 June 2018
Temperature: 24.0°C (75°F)
Dewpoint: 21.0°C (70°F) [RH = 83%]
Pressure (altimeter): 29.73 inches Hg (1007.0 mb)
Winds: from the SSE (150 degrees) at 7 MPH (6 knots; 3.1 m/s)
Visibility: 6 or more miles (10+ km)
Ceiling: at least 12,000 feet AGL
Clouds: scattered clouds at 3000 feet AGL
Weather: no significant weather observed at this time